KCRG/CRG METAR and TAF weather

Enter ICAO airport designator
Station Type Date Time Source
KCRG METAR 2019/12/13 14:20 UTC NOAA

KCRG 131420Z 17009G22KT 2 1/2SM -TSRA BR BKN008 BKN013 OVC017 20/19 A3001 RMK AO2 WSHFT 1405 TSB11 P0042 T02000194


Station Type Date Time Source
KCRG Decoded METAR 2019/12/13 14:20 UTC NOAA

JACKSONVILLE CRAIG MUN, FL, United States (KCRG) 30-20N 81-31W 13M
Dec 13, 2019 - 09:20 AM EST / 2019.12.13 1420 UTC
Wind: from the S (170 degrees) at 10 MPH (9 KT) gusting to 25 MPH (22 KT):0
Visibility: 2 1/2 mile(s):0
Sky conditions: overcast
Weather: light rain with thunder; mist
Precipitation last hour: 0.42 inches
Temperature: 68.0 F (20.0 C)
Dew Point: 66.9 F (19.4 C)
Relative Humidity: 96%
Pressure (altimeter): 30.01 in. Hg (1016 hPa)
ob: KCRG 131420Z 17009G22KT 2 1/2SM -TSRA BR BKN008 BKN013 OVC017 20/19 A3001 RMK AO2 WSHFT 1405 TSB11 P0042 T02000194
cycle: 14

Station Type Date Time Source
KCRG TAF 2019/12/13 14:45 UTC NOAA

TAF
AMD KCRG 131342Z 1314/1412 VRB06KT 1SM RA BR BKN005 OVC008
TEMPO 1314/1315 VRB18G28KT 1/2SM +TSRA FG OVC004CB
FM131500 VRB06KT 6SM -SHRA SCT008 BKN010 OVC025
FM131900 22008KT 6SM -SHRA VCTS SCT010 BKN020CB OVC030
FM132300 16006KT 6SM BR SCT010 BKN020 OVC030
FM140300 19006KT 3SM BR BKN005 OVC010
FM140800 22012KT 3SM SHRA VCTS BKN010CB OVC020

Example: see airport list